< < Back
Terminal Aerodrome Forecast


Current Version              Previous Versions:   1  2  3  4  5  6  7  8  9  

Terminal Aerodrome Forecast

072
FTUS42 KTAE 312320
TAFTLH
TAF
KTLH 312320Z 0100/0124 09005KT P6SM FEW060 SCT250
     FM011600 08007KT P6SM -SHRA BKN040
      TEMPO 0118/0122 5SM TSRA FEW010 BKN035CB=

Latest METAR

108
SAUS80 KWBC 011600 RRE
MTRTLH
METAR KTLH 011553Z 01004KT 10SM FEW020 FEW080 BKN250 30/23 A3009 RMK AO2
SLP186 T03000233


USA.gov is the U.S. government's official web portal to all federal, state and local government web resources and services.